Latest Weather Observations for Winton

IDQ60801

Issued at 8:35 pm EST Sunday 20 April 2014 (issued every 30 minutes, with the page automatically refreshed every 10 minutes)

About weather observations | Map of weather stations | Latest weather observations for QLD | Other Formats
Station Details ID: 037039 Name: WINTON AIRPORT Lat: -22.36 Lon: 143.08 Height: 192.2 m
Data from the previous 72 hours. | See also: Recent months at Winton
Date/Time
EST
Temp
°C
App
Temp
°C
Dew
Point
Rel
Hum
%
Delta-T
°C
Wind Press
QNH
hPa
Press
MSL
hPa
Rain
since 9 am
mm
Dir
 
Spd
km/h
Gust
km/h
Spd
kts
Gust
kts
20/08:30pm 26.1 23.8 5.7 27 10.6 ESE 7 9 4 5 1014.5 - 0.0
20/08:00pm 27.3 24.3 6.1 26 11.2 SE 11 11 6 6 1014.2 1013.2 0.0
20/07:30pm 27.3 25.0 5.6 25 11.3 SSE 7 11 4 6 1013.9 - 0.0
20/07:00pm 29.1 26.6 6.5 24 12.1 SSE 9 11 5 6 1013.5 1012.5 0.0
20/06:30pm 30.3 27.5 6.9 23 12.7 SSE 11 13 6 7 1013.3 - 0.0
20/06:00pm 31.9 29.3 6.2 20 13.9 S 9 15 5 8 1013.1 1012.1 0.0
20/05:30pm 32.7 30.1 6.1 19 14.4 ESE 9 17 5 9 1012.7 - 0.0
20/05:00pm 33.3 31.4 6.6 19 14.6 SSE 6 9 3 5 1012.6 1011.6 0.0
20/04:30pm 33.6 30.8 6.8 19 14.8 E 11 22 6 12 1012.5 - 0.0
20/04:00pm 33.2 30.5 7.2 20 14.4 SSW 11 19 6 10 1012.5 1011.5 0.0
20/03:30pm 33.8 31.9 7.7 20 14.6 SSE 7 15 4 8 1012.5 - 0.0
20/03:00pm 33.2 31.4 7.9 21 14.2 WNW 7 13 4 7 1012.6 1011.6 0.0
20/02:30pm 33.4 31.6 8.1 21 14.2 ENE 7 9 4 5 1012.9 - 0.0
20/02:00pm 33.1 31.4 8.5 22 13.9 S 7 13 4 7 1013.2 1012.2 0.0
20/01:30pm 33.2 31.4 7.9 21 14.2 NNE 7 15 4 8 1013.7 - 0.0
20/01:00pm 31.9 30.4 10.6 27 12.4 N 9 17 5 9 1014.0 1013.0 0.0
20/12:30pm 31.2 30.2 11.1 29 11.7 ENE 7 17 4 9 1014.6 - 0.0
20/12:00pm 30.9 29.1 10.8 29 11.6 E 11 22 6 12 1015.2 1014.3 0.0
20/11:30am 30.3 28.1 10.8 30 11.3 E 13 20 7 11 1015.7 - 0.0
20/11:00am 28.8 26.6 9.5 30 10.8 E 11 19 6 10 1016.2 1015.2 0.0
20/10:30am 27.4 24.2 8.3 30 10.4 E 15 20 8 11 1016.5 - 0.0
20/10:00am 26.9 22.6 6.9 28 10.6 ESE 19 30 10 16 1016.7 1015.7 0.0
20/09:30am 26.1 20.4 5.1 26 10.8 ESE 24 32 13 17 1016.6 - 0.0
20/09:00am 25.1 18.8 3.7 25 10.6 SE 26 32 14 17 1016.5 1015.5 0.0
20/08:30am 24.0 17.6 3.3 26 10.1 SE 26 32 14 17 1016.2 - 0.0
20/08:00am 23.7 19.8 3.6 27 9.9 ESE 13 20 7 11 1015.8 1014.9 0.0
20/07:30am 22.1 18.3 3.7 30 9.0 SSE 13 19 7 10 1015.3 - 0.0
20/07:00am 21.1 16.0 3.3 31 8.5 SSE 19 24 10 13 1015.0 1014.0 0.0
20/06:30am 20.4 16.0 2.7 31 8.4 SSE 15 19 8 10 1014.8 - 0.0
20/06:00am 19.6 15.9 2.5 32 8.0 SSE 11 15 6 8 1014.5 1013.5 0.0
20/05:30am 20.3 16.0 3.1 32 8.2 SSE 15 19 8 10 1014.4 - 0.0
20/05:00am 18.9 15.3 2.7 34 7.6 SSE 11 15 6 8 1014.3 1013.3 0.0
20/04:30am 17.8 14.4 1.7 34 7.3 S 9 11 5 6 1014.1 - 0.0
20/04:00am 19.0 15.2 2.0 32 7.8 S 11 15 6 8 1014.0 1013.0 0.0
20/03:30am 17.9 14.9 0.6 31 7.7 SSW 6 7 3 4 1014.2 - 0.0
20/03:00am 19.9 16.4 1.4 29 8.5 S 9 11 5 6 1014.1 1013.1 0.0
20/02:30am 20.5 17.5 1.9 29 8.7 SSE 7 11 4 6 1014.2 - 0.0
20/02:00am 20.3 17.0 0.2 26 9.0 S 7 9 4 5 1014.3 1013.3 0.0
20/01:30am 21.0 17.0 0.2 25 9.4 S 11 13 6 7 1014.3 - 0.0
20/01:00am 21.4 17.4 0.6 25 9.5 SSE 11 13 6 7 1014.4 1013.4 0.0
20/12:30am 20.1 17.0 0.0 26 9.0 SSE 6 7 3 4 1014.5 - 0.0
20/12:00am 20.9 16.9 0.2 25 9.3 S 11 11 6 6 1014.5 1013.5 0.0
 
Date/Time
EST
Temp
°C
App
Temp
°C
Dew
Point
Rel
Hum
%
Delta-T
°C
Wind Press
QNH
hPa
Press
MSL
hPa
Rain
since 9 am
mm
Dir
 
Spd
km/h
Gust
km/h
Spd
kts
Gust
kts
19/11:30pm 20.8 17.5 0.1 25 9.3 SSW 7 7 4 4 1014.5 - 0.0
19/11:00pm 20.7 17.6 0.0 25 9.3 SSW 6 7 3 4 1014.5 1013.5 0.0
19/10:30pm 20.7 17.4 0.0 25 9.3 SSW 7 7 4 4 1014.6 - 0.0
19/10:00pm 21.3 17.7 0.5 25 9.5 S 9 11 5 6 1014.6 1013.6 0.0
19/09:30pm 22.0 18.4 0.5 24 9.8 S 9 11 5 6 1014.4 - 0.0
19/09:00pm 22.7 18.7 0.5 23 10.2 SSW 11 13 6 7 1014.3 1013.3 0.0
19/08:30pm 23.1 19.2 0.9 23 10.3 S 11 11 6 6 1014.0 - 0.0
19/08:00pm 23.8 19.8 0.8 22 10.7 SSW 11 11 6 6 1013.8 1012.8 0.0
19/07:30pm 24.8 20.9 1.0 21 11.2 SSW 11 13 6 7 1013.5 - 0.0
19/07:00pm 26.5 23.1 1.7 20 12.0 S 9 11 5 6 1013.2 1012.2 0.0
19/06:30pm 28.6 25.2 2.0 18 13.1 S 9 11 5 6 1013.0 - 0.0
19/06:00pm 31.0 27.7 2.3 16 14.5 S 9 13 5 7 1012.9 1011.9 0.0
19/05:30pm 32.1 28.5 3.1 16 14.9 S 11 19 6 10 1012.5 - 0.0
19/05:00pm 32.4 28.9 3.4 16 15.0 S 11 22 6 12 1012.4 1011.4 0.0
19/04:30pm 32.5 29.8 3.5 16 15.1 ESE 7 15 4 8 1012.3 - 0.0
19/04:00pm 32.8 30.1 3.7 16 15.2 E 7 20 4 11 1012.4 1011.4 0.0
19/03:30pm 32.4 29.5 2.5 15 15.3 S 7 13 4 7 1012.5 - 0.0
19/03:00pm 32.8 29.2 2.8 15 15.4 S 11 17 6 9 1012.7 1011.7 0.0
19/02:30pm 32.6 29.9 3.5 16 15.1 S 7 19 4 10 1012.9 - 0.0
19/02:00pm 32.2 29.8 4.1 17 14.7 ENE 6 15 3 8 1013.3 1012.3 0.0
19/01:30pm 31.9 28.6 4.6 18 14.4 ENE 11 26 6 14 1013.6 - 0.0
19/01:00pm 31.3 27.3 4.9 19 13.9 S 15 24 8 13 1014.2 1013.2 0.0
19/12:30pm 31.7 28.9 5.3 19 14.1 SE 9 24 5 13 1014.6 - 0.0
19/12:00pm 32.1 29.5 7.7 22 13.5 ESE 11 24 6 13 1015.3 1014.4 0.0
19/11:30am 30.2 26.3 8.6 26 12.0 SE 19 26 10 14 1016.1 - 0.0
19/11:00am 29.5 25.3 7.4 25 12.0 SE 19 24 10 13 1016.5 1015.5 0.0
19/10:30am 29.0 25.1 7.0 25 11.9 SE 17 24 9 13 1016.9 - 0.0
19/10:00am 28.0 23.1 5.0 23 11.9 SE 20 28 11 15 1017.2 1016.2 0.0
19/09:30am 26.6 20.8 2.5 21 11.9 SE 22 28 12 15 1017.3 - 0.0
19/09:00am 25.6 20.1 1.7 21 11.5 SE 20 30 11 16 1017.3 1016.3 0.0
19/08:30am 24.2 18.6 1.2 22 10.9 SE 20 30 11 16 1017.2 - 0.0
19/08:00am 23.1 17.5 0.9 23 10.3 SE 20 32 11 17 1017.0 1016.0 0.0
19/07:30am 22.2 16.5 0.7 24 9.9 SE 20 32 11 17 1016.7 - 0.0
19/07:00am 21.5 15.8 0.7 25 9.5 SSE 20 30 11 16 1016.3 1015.3 0.0
19/06:30am 21.2 16.1 1.0 26 9.3 SSE 17 22 9 12 1016.1 - 0.0
19/06:00am 21.2 16.1 1.0 26 9.3 SSE 17 20 9 11 1015.7 1014.8 0.0
19/05:30am 21.9 15.9 1.0 25 9.7 SSE 22 28 12 15 1015.4 - 0.0
19/05:00am 22.1 15.6 0.6 24 9.9 SSE 24 30 13 16 1015.3 1014.4 0.0
19/04:30am 22.3 16.3 0.8 24 9.9 SE 22 30 12 16 1015.3 - 0.0
19/04:00am 22.5 16.8 0.4 23 10.1 SE 20 30 11 16 1015.4 1014.5 0.0
19/03:30am 23.0 17.2 0.2 22 10.5 SSE 20 28 11 15 1015.5 - 0.0
19/03:00am 23.6 17.8 0.0 21 10.8 SSE 20 28 11 15 1015.6 1014.7 0.0
19/02:30am 22.5 18.1 0.4 23 10.1 SSE 13 19 7 10 1015.7 - 0.0
19/02:00am 21.2 17.1 -0.1 24 9.6 SSE 11 15 6 8 1016.0 1015.0 0.0
19/01:30am 21.1 16.9 -0.8 23 9.7 SSE 11 13 6 7 1016.2 - 0.0
19/01:00am 20.9 16.7 -1.0 23 9.6 SSE 11 13 6 7 1016.3 1015.3 0.0
19/12:30am 21.6 17.8 -0.4 23 9.9 SSE 9 11 5 6 1016.5 - 0.0
19/12:00am 21.6 17.0 -1.0 22 10.0 S 13 15 7 8 1016.4 1015.4 0.0
 
Date/Time
EST
Temp
°C
App
Temp
°C
Dew
Point
Rel
Hum
%
Delta-T
°C
Wind Press
QNH
hPa
Press
MSL
hPa
Rain
since 9 am
mm
Dir
 
Spd
km/h
Gust
km/h
Spd
kts
Gust
kts
18/11:30pm 21.9 18.2 -0.1 23 10.0 SSE 9 13 5 7 1016.5 - 0.0
18/11:00pm 22.4 18.5 0.9 24 9.9 S 11 15 6 8 1016.5 1015.5 0.0
18/10:30pm 21.4 18.0 1.7 27 9.2 S 9 13 5 7 1016.5 - 0.0
18/10:00pm 23.1 19.3 2.0 25 10.0 S 11 13 6 7 1016.4 1015.4 0.0
18/09:30pm 23.2 19.5 2.1 25 10.1 S 11 13 6 7 1016.3 - 0.0
18/09:00pm 23.9 20.3 2.7 25 10.3 S 11 11 6 6 1016.1 1015.1 0.0
18/08:30pm 23.4 20.0 1.7 24 10.3 S 9 13 5 7 1015.8 - 0.0
18/08:00pm 24.1 20.4 -0.2 20 11.2 S 9 11 5 6 1015.4 1014.5 0.0
18/07:30pm 26.0 22.8 0.6 19 12.0 SSE 7 9 4 5 1015.0 - 0.0
18/07:00pm 27.7 23.7 0.5 17 13.0 SSE 11 15 6 8 1014.7 1013.7 0.0
18/06:30pm 28.2 24.5 0.0 16 13.4 SSE 9 13 5 7 1014.4 - 0.0
18/06:00pm 30.9 26.5 0.3 14 14.9 S 13 19 7 10 1014.0 1013.0 0.0
18/05:30pm 32.1 28.1 0.2 13 15.6 SSE 11 19 6 10 1013.7 - 0.0
18/05:00pm 32.8 28.3 -0.3 12 16.2 SSW 13 20 7 11 1013.5 1012.5 0.0
18/04:30pm 33.1 29.0 -0.1 12 16.3 S 11 28 6 15 1013.3 - 0.0
18/04:00pm 32.9 29.5 1.9 14 15.7 S 9 13 5 7 1013.2 1012.2 0.0
18/03:30pm 33.3 30.7 1.2 13 16.1 ENE 4 7 2 4 1013.2 - 0.0
18/03:00pm 33.0 30.4 0.9 13 16.0 SSW 4 11 2 6 1013.3 1012.3 0.0
18/02:30pm 33.3 30.0 2.2 14 15.9 ESE 9 17 5 9 1013.5 - 0.0
18/02:00pm 33.0 29.6 2.0 14 15.7 SSW 9 20 5 11 1014.0 1013.0 0.0
18/01:30pm 32.5 28.7 1.6 14 15.5 SSE 11 20 6 11 1014.3 - 0.0
18/01:00pm 32.0 28.3 2.1 15 15.1 SSE 11 26 6 14 1014.7 1013.7 0.0
18/12:30pm 31.8 28.0 3.8 17 14.6 SE 13 22 7 12 1015.1 - 0.0
18/12:00pm 31.7 27.3 4.5 18 14.3 ESE 17 24 9 13 1015.6 1014.7 0.0
18/11:30am 31.1 26.9 5.5 20 13.6 ESE 17 28 9 15 1016.0 - 0.0
18/11:00am 30.3 25.6 6.2 22 12.9 ESE 20 28 11 15 1016.4 1015.4 0.0
18/10:30am 29.1 24.4 5.9 23 12.3 ESE 20 28 11 15 1016.8 - 0.0
18/10:00am 28.0 22.9 6.2 25 11.5 ESE 22 30 12 16 1016.9 1015.9 0.0
18/09:30am 26.0 19.9 5.0 26 10.8 SE 26 30 14 16 1017.1 - 0.0
18/09:00am 24.8 19.0 4.5 27 10.2 SE 24 30 13 16 1017.1 1016.1 0.0
18/08:30am 23.5 17.6 4.0 28 9.7 SE 24 32 13 17 1017.0 - 0.0
18/08:00am 22.4 16.8 3.5 29 9.2 SE 22 30 12 16 1016.9 1015.9 0.0
18/07:30am 21.2 16.1 3.0 30 8.7 SE 19 26 10 14 1016.6 - 0.0
18/07:00am 20.9 14.9 3.2 31 8.5 SE 24 30 13 16 1016.5 1015.5 0.0
18/06:30am 21.3 15.7 3.5 31 8.6 SE 22 32 12 17 1016.4 - 0.0
18/06:00am 21.4 15.4 3.1 30 8.8 SE 24 32 13 17 1016.2 1015.2 0.0
18/05:30am 21.8 15.5 3.5 30 8.9 SE 26 32 14 17 1016.0 - 0.0
18/05:00am 22.6 15.4 3.2 28 9.4 SE 30 39 16 21 1015.5 1014.6 0.0
18/04:30am 23.0 16.2 3.0 27 9.7 SE 28 37 15 20 1015.4 - 0.0
18/04:00am 23.1 16.6 2.6 26 9.8 SE 26 35 14 19 1015.4 1014.5 0.0
18/03:30am 23.8 16.9 2.6 25 10.2 SE 28 37 15 20 1015.5 - 0.0
18/03:00am 24.0 17.0 2.2 24 10.5 SE 28 37 15 20 1015.5 1014.6 0.0
18/02:30am 24.2 17.9 1.8 23 10.7 SE 24 33 13 18 1015.7 - 0.0
18/02:00am 24.6 18.2 0.8 21 11.2 SSE 24 35 13 19 1015.7 1014.8 0.0
18/01:30am 24.0 19.7 1.0 22 10.8 SSE 13 20 7 11 1015.8 - 0.0
18/01:00am 24.0 19.3 1.0 22 10.8 SSE 15 20 8 11 1016.1 1015.1 0.0
18/12:30am 24.5 19.8 0.8 21 11.1 SSE 15 22 8 12 1016.3 - 0.0
18/12:00am 24.7 19.6 0.9 21 11.2 S 17 22 9 12 1016.4 1015.4 0.0
 
Date/Time
EST
Temp
°C
App
Temp
°C
Dew
Point
Rel
Hum
%
Delta-T
°C
Wind Press
QNH
hPa
Press
MSL
hPa
Rain
since 9 am
mm
Dir
 
Spd
km/h
Gust
km/h
Spd
kts
Gust
kts
17/11:30pm 25.4 20.8 1.5 21 11.4 S 15 19 8 10 1016.5 - 0.0
17/11:00pm 25.7 21.5 3.6 24 11.0 SSE 15 20 8 11 1016.5 1015.5 0.0
17/10:30pm 24.4 21.1 4.7 28 9.9 SSE 11 13 6 7 1016.4 - 0.0
17/10:00pm 25.3 21.7 5.0 27 10.3 SSE 13 15 7 8 1016.3 1015.3 0.0
17/09:30pm 26.2 22.6 5.2 26 10.8 S 13 17 7 9 1016.2 - 0.0
17/09:00pm 26.2 22.5 4.6 25 11.0 S 13 15 7 8 1016.1 1015.1 0.0

Other Formats:

Comma delimited format used in spreadsheet applications
http://www.bom.gov.au/fwo/IDQ60801/IDQ60801.94342.axf

JavaScript Object Notation format (JSON) in row-major order
http://www.bom.gov.au/fwo/IDQ60801/IDQ60801.94342.json